• Join FlightAware (Why Join?)
  • Login
  • US Flag 
09:40PM EST


 

Airport Tracker/Info


-or-


 

Live Flight TrackerFlight Track Log ✈ CPZ5714 ✈ 28-Jun-2013 ✈ KMSP - KALB

Flight Track Log - Related Links

Times and Time Zones

All times are in EDT time to prevent confusion due to time zone crossing. See the CPZ5714 flight status page for this flight to view local times or setup timezone preferences in your user account.

Time Position Orientation Groundspeed Altitude Reporting Facility
EDT Latitude Longitude Course Direction KTS MPH feet Rate Location/Type
08:48PM 44.9167 -93.2333 45° Northeast 155 178 2,900  Level Minneapolis TRACON
08:48PM 44.9425 -93.2378 353° North 159 183 3,900 1,680 Climbing Minneapolis Center
08:50PM 44.9947 -93.2311 North 186 214 5,800 1,440 Climbing Minneapolis Center
08:51PM 45.0353 -93.1475 56° Northeast 254 292 6,900 1,020 Climbing Minneapolis Center
08:52PM 45.3082 -92.5309 45° Northeast  Level FlightAware Approximate
08:52PM 45.0861 -93.0419 56° Northeast 269 310 8,000  Level Minneapolis Center
08:53PM 45.3853 -92.4195 45° Northeast  Level FlightAware Approximate
08:53PM 45.1289 -92.9525 56° Northeast 274 315 10,100  Level Minneapolis Center
08:54PM 45.1664 -92.8389 65° Northeast 326 375 11,800 1,800 Climbing Minneapolis Center
08:55PM 45.2067 -92.7153 65° Northeast 345 397 13,900 2,160 Climbing Minneapolis Center
08:56PM 45.2492 -92.5856 65° Northeast 361 415 16,300 2,160 Climbing Minneapolis Center
08:57PM 45.3033 -92.4642 58° Northeast 366 421 18,400 2,040 Climbing Minneapolis Center
08:58PM 45.3936 -92.3417 44° Northeast 372 428 20,600 1,800 Climbing Minneapolis Center
08:59PM 45.4706 -92.2347 44° Northeast 385 443 22,200 1,560 Climbing Minneapolis Center
09:00PM 45.5497 -92.1219 45° Northeast 400 460 23,900 1,500 Climbing Minneapolis Center
09:01PM 45.6311 -92.0067 45° Northeast 411 473 25,300 1,200 Climbing Minneapolis Center
09:02PM 45.7131 -91.8894 45° Northeast 416 479 26,500 1,200 Climbing Minneapolis Center
09:03PM 45.7961 -91.7708 45° Northeast 422 486 27,800 1,200 Climbing Minneapolis Center
09:04PM 45.8386 -91.5636 74° East 447 514 29,100 1,200 Climbing Minneapolis Center
09:05PM 45.8572 -91.3889 81° East 445 512 30,400 960 Climbing Minneapolis Center
09:06PM 45.8750 -91.2147 82° East 442 509 31,200 780 Climbing Minneapolis Center
09:07PM 45.8928 -91.0392 82° East 445 512 32,100 780 Climbing Minneapolis Center
09:08PM 45.9117 -90.8642 81° East 445 512 32,900 780 Climbing Minneapolis Center
09:09PM 45.9308 -90.6881 81° East 446 513 33,800 900 Climbing Minneapolis Center
09:10PM 45.9533 -90.4797 81° East 442 509 34,800 540 Climbing Minneapolis Center
09:11PM 45.9700 -90.3036 82° East 445 512 35,000 60 Climbing Minneapolis Center
09:12PM 45.9881 -90.1258 82° East 450 518 35,000  Level Minneapolis Center
09:13PM 46.0056 -89.9514 82° East 442 509 35,000  Level Minneapolis Center
09:15PM 46.0167 -89.7565 85° East  Level FlightAware Approximate
09:15PM 46.0383 -89.6011 85° East 442 509 35,000  Level Minneapolis Center
09:16PM 46.0553 -89.4258 82° East 443 510 35,000  Level Minneapolis Center
09:17PM 46.0744 -89.2161 82° East 442 509 35,000  Level Minneapolis Center
09:18PM 46.0906 -89.0403 82° East 444 511 35,000  Level Minneapolis Center
09:19PM 46.1047 -88.8822 83° East 443 510 35,000  Level Minneapolis Center
09:21PM 46.1233 -88.6733 83° East 438 504 35,000  Level Minneapolis Center
09:22PM 46.1375 -88.4983 83° East 439 505 35,000  Level Minneapolis Center
09:23PM 46.1525 -88.3233 83° East 441 507 35,000  Level Minneapolis Center
09:24PM 46.1667 -88.1486 83° East 441 507 35,000  Level Minneapolis Center
09:25PM 46.1825 -87.9564 83° East 440 506 35,000  Level Minneapolis Center
09:26PM 46.1961 -87.7817 84° East 440 506 35,000  Level Minneapolis Center
09:27PM 46.2094 -87.6056 84° East 440 506 35,000  Level Minneapolis Center
09:28PM 46.2231 -87.4300 84° East 441 507 35,000  Level Minneapolis Center
09:29PM 46.2347 -87.2561 84° East 435 501 35,000  Level Minneapolis Center
09:30PM 46.2483 -87.0833 83° East 434 499 35,000  Level Minneapolis Center
09:31PM 46.2600 -86.9133 84° East 428 493 35,000  Level Minneapolis Center
09:32PM 46.2744 -86.7092 84° East 426 490 35,000  Level Minneapolis Center
09:33PM 46.2858 -86.5350 85° East 433 498 35,000  Level Minneapolis Center
09:34PM 46.2975 -86.3644 84° East 428 493 35,000  Level Minneapolis Center
09:35PM 46.3081 -86.1936 85° East 427 491 35,000  Level Minneapolis Center
09:36PM 46.3186 -86.0225 85° East 425 489 35,000  Level Minneapolis Center
09:37PM 46.3286 -85.8561 85° East 422 486 35,000  Level Minneapolis Center
09:38PM 46.3392 -85.6875 85° East 421 484 35,000  Level Minneapolis Center
09:39PM 46.3539 -85.4511 85° East 422 486 35,000  Level Minneapolis Center
09:40PM 46.3628 -85.2861 85° East 415 478 35,000  Level Minneapolis Center
09:41PM 46.3717 -85.1214 85° East 412 474 35,000  Level Minneapolis Center
09:42PM 46.3806 -84.9567 85° East 411 473 35,000  Level Minneapolis Center
09:43PM 46.3894 -84.7931 85° East 410 472 35,000  Level Minneapolis Center
09:44PM 46.3969 -84.6233 86° East 414 476 35,000  Level Minneapolis Center
09:46PM 46.4000 -84.4000 89° East 420 483 35,000  Level Toronto Center
09:47PM 46.4000 -84.2333 90° East 420 483 35,000  Level Toronto Center
09:48PM 46.3833 -84.0833 99° East 420 483 35,000  Level Toronto Center
09:49PM 46.3833 -83.9167 90° East 420 483 35,000  Level Toronto Center
09:50PM 46.3833 -83.7333 90° East 420 483 35,000  Level Toronto Center
09:51PM 46.3667 -83.5667 98° East 420 483 35,000  Level Toronto Center
09:52PM 46.3500 -83.4000 98° East 420 483 35,000  Level Toronto Center
09:53PM 46.3500 -83.2333 90° East 410 472 35,000  Level Toronto Center
09:54PM 46.3500 -83.0667 90° East 410 472 35,000  Level Toronto Center
09:55PM 46.3333 -82.9000 98° East 410 472 35,000  Level Toronto Center
09:56PM 46.3167 -82.7500 99° East 410 472 35,000  Level Toronto Center
09:57PM 46.3167 -82.5833 90° East 410 472 35,000  Level Toronto Center
09:58PM 46.3000 -82.4000 97° East 420 483 35,000  Level Toronto Center
09:59PM 46.2833 -82.2333 98° East 420 483 35,000  Level Toronto Center
10:00PM 46.2667 -82.0667 98° East 420 483 35,000  Level Toronto Center
10:01PM 46.2833 -81.9000 82° East 420 483 35,000  Level Toronto Center
10:02PM 46.2667 -81.7333 98° East 420 483 35,000  Level Toronto Center
10:03PM 46.2500 -81.5667 98° East 420 483 35,000  Level Toronto Center
10:04PM 46.2333 -81.3833 97° East 420 483 35,000  Level Toronto Center
10:05PM 46.2167 -81.2167 98° East 420 483 35,000  Level Toronto Center
10:06PM 46.2000 -81.0500 98° East 420 483 35,000  Level Toronto Center
10:07PM 46.2167 -80.8833 82° East 420 483 35,000  Level Toronto Center
10:08PM 46.2000 -80.7167 98° East 420 483 35,000  Level Toronto Center
10:09PM 46.1333 -80.6000 129° Southeast 410 472 35,000  Level Toronto Center
10:10PM 46.0667 -80.4500 123° Southeast 410 472 35,000  Level Toronto Center
10:11PM 46.0167 -80.3000 116° Southeast 420 483 35,000  Level Toronto Center
10:12PM 45.9500 -80.1667 126° Southeast 420 483 35,000  Level Toronto Center
10:13PM 45.8833 -80.0167 123° Southeast 420 483 35,000  Level Toronto Center
10:14PM 45.8167 -79.8667 122° Southeast 420 483 35,000  Level Toronto Center
10:15PM 45.7500 -79.7500 129° Southeast 420 483 35,000  Level Toronto Center
10:16PM 45.7000 -79.6000 115° Southeast 420 483 35,000  Level Toronto Center
10:17PM 45.6333 -79.4667 126° Southeast 420 483 35,000  Level Toronto Center
10:18PM 45.5667 -79.3167 122° Southeast 420 483 35,000  Level Toronto Center
10:19PM 45.5000 -79.1833 125° Southeast 420 483 35,000  Level Toronto Center
10:20PM 45.4500 -79.0667 121° Southeast 420 483 35,000  Level Toronto Center
10:21PM 45.3833 -78.9167 122° Southeast 420 483 35,000  Level Toronto Center
10:22PM 45.3167 -78.7833 125° Southeast 420 483 35,000  Level Toronto Center
10:23PM 45.2500 -78.6333 122° Southeast 420 483 35,000  Level Toronto Center
10:24PM 45.1833 -78.5000 125° Southeast 420 483 35,000  Level Toronto Center
10:25PM 45.1167 -78.3833 129° Southeast 420 483 35,000  Level Toronto Center
10:26PM 45.0500 -78.2333 122° Southeast 420 483 35,000  Level Toronto Center
10:27PM 44.9833 -78.1000 125° Southeast 420 483 35,000  Level Toronto Center
10:28PM 44.9167 -77.9667 125° Southeast 420 483 35,000  Level Toronto Center
10:29PM 44.8500 -77.8167 122° Southeast 420 483 35,000  Level Toronto Center
10:30PM 44.7833 -77.6833 125° Southeast 420 483 35,000  Level Toronto Center
10:31PM 44.7333 -77.5500 118° Southeast 420 483 35,000  Level Toronto Center
10:32PM 44.6667 -77.4000 122° Southeast 420 483 35,000  Level Toronto Center
10:33PM 44.5833 -77.2833 135° Southeast 430 495 35,000  Level Toronto Center
10:34PM 44.5167 -77.1333 122° Southeast 430 495 35,000 -360 Level Toronto Center
10:35PM 44.4500 -77.0167 129° Southeast 430 495 34,300 -900 Descending Toronto Center
10:36PM 44.3833 -76.8833 125° Southeast 430 495 33,300 -660 Descending Toronto Center
10:37PM 44.3167 -76.7500 125° Southeast 430 495 33,000 -180 Descending Toronto Center
10:38PM 44.2333 -76.6000 128° Southeast 430 495 33,000  Level Toronto Center
10:40PM 44.0944 -76.2997 123° Southeast 441 507 33,000  Level Boston Center
10:41PM 44.0239 -76.1622 125° Southeast 441 507 33,000  Level Boston Center
10:42PM 43.9511 -76.0278 127° Southeast 441 507 33,000  Level Boston Center
10:43PM 43.8822 -75.8911 125° Southeast 441 507 33,000  Level Boston Center
10:44PM 43.8111 -75.7575 126° Southeast 441 507 33,000 -180 Level Boston Center
10:45PM 43.7381 -75.6214 127° Southeast 441 507 32,700 -1,260 Descending Boston Center
10:46PM 43.6686 -75.4886 126° Southeast 441 507 30,500 -2,340 Descending Boston Center
10:47PM 43.5969 -75.3531 126° Southeast 441 507 28,100 -2,100 Descending Boston Center
10:48PM 43.5333 -75.2325 126° Southeast 441 507 26,300 -2,100 Descending Boston Center
10:49PM 43.4633 -75.1061 127° Southeast 435 501 24,000 -2,220 Descending Boston Center
10:50PM 43.3975 -74.9833 126° Southeast 416 479 21,900 -2,100 Descending Boston Center
10:51PM 43.3353 -74.8664 126° Southeast 396 456 19,900 -1,800 Descending Boston Center
10:52PM 43.2731 -74.7528 127° Southeast 383 441 18,300 -1,980 Descending Boston Center
10:53PM 43.2147 -74.6481 127° Southeast 370 426 16,000 -2,100 Descending Boston Center
10:54PM 43.1583 -74.5436 126° Southeast 351 404 14,200 -1,800 Descending Boston Center
10:55PM 43.0978 -74.4333 127° Southeast 336 387 12,400 -1,800 Descending Boston Center
10:56PM 43.0472 -74.3408 127° Southeast 320 368 10,700 -1,680 Descending Boston Center
10:57PM 42.9967 -74.2511 128° Southeast 303 349 9,100 -1,740 Descending Boston Center
10:58PM 42.9372 -74.1869 142° Southeast 280 322 7,300 -1,560 Descending Boston Center
10:59PM 42.8778 -74.1203 141° Southeast 280 322 6,000 -1,320 Descending Boston Center
11:00PM 42.8286 -74.0681 142° Southeast 264 304 4,700 -1,020 Descending Boston Center
11:01PM 42.7750 -74.0128 143° Southeast 259 298 4,000 -420 Descending Boston Center
11:02PM 42.7217 -73.9606 144° Southeast 248 285 3,900 -240 Descending Boston Center
11:03PM 42.6614 -73.9336 162° South 235 270 3,600 -300 Descending Boston Center
11:04PM 42.6056 -73.9097 163° South 223 257 3,300 -360 Descending Boston Center
11:05PM 42.5644 -73.8636 140° Southeast 200 230 2,900 -300 Descending Boston Center
11:06PM 42.5881 -73.8022 62° Northeast 129 148 2,700 -300 Descending Boston Center
11:07PM 42.6297 -73.8031 359° North 108 124 2,300 -420 Descending Boston Center